sensor_id;sensor_type;location;lat;lon;timestamp;pressure;altitude;pressure_sealevel;temperature
66113;BMP280;52893;52.870;5.822;2023-03-03T00:00:43;102603.47;;;4.14
66113;BMP280;52893;52.870;5.822;2023-03-03T00:03:14;102618.72;;;4.20
66113;BMP280;52893;52.870;5.822;2023-03-03T00:05:42;102600.25;;;4.17
66113;BMP280;52893;52.870;5.822;2023-03-03T00:08:10;102609.09;;;4.24
66113;BMP280;52893;52.870;5.822;2023-03-03T00:10:38;102614.97;;;4.21
66113;BMP280;52893;52.870;5.822;2023-03-03T00:13:10;102610.84;;;4.19
66113;BMP280;52893;52.870;5.822;2023-03-03T00:15:39;102610.16;;;4.23
66113;BMP280;52893;52.870;5.822;2023-03-03T00:18:16;102609.69;;;4.26
66113;BMP280;52893;52.870;5.822;2023-03-03T00:20:47;102618.16;;;4.30
66113;BMP280;52893;52.870;5.822;2023-03-03T00:23:19;102615.25;;;4.32
66113;BMP280;52893;52.870;5.822;2023-03-03T00:25:50;102615.56;;;4.35
66113;BMP280;52893;52.870;5.822;2023-03-03T00:28:22;102622.97;;;4.40
66113;BMP280;52893;52.870;5.822;2023-03-03T00:30:50;102606.75;;;4.40
66113;BMP280;52893;52.870;5.822;2023-03-03T00:33:24;102608.84;;;4.38
66113;BMP280;52893;52.870;5.822;2023-03-03T00:35:54;102619.66;;;4.38
66113;BMP280;52893;52.870;5.822;2023-03-03T00:38:22;102623.44;;;4.37
66113;BMP280;52893;52.870;5.822;2023-03-03T00:40:50;102609.81;;;4.32
66113;BMP280;52893;52.870;5.822;2023-03-03T00:43:19;102613.59;;;4.31
66113;BMP280;52893;52.870;5.822;2023-03-03T00:45:47;102616.84;;;4.21
66113;BMP280;52893;52.870;5.822;2023-03-03T00:48:23;102622.38;;;4.26
66113;BMP280;52893;52.870;5.822;2023-03-03T00:50:51;102619.91;;;4.24
66113;BMP280;52893;52.870;5.822;2023-03-03T00:53:20;102618.72;;;4.20
66113;BMP280;52893;52.870;5.822;2023-03-03T00:55:49;102624.59;;;4.17
66113;BMP280;52893;52.870;5.822;2023-03-03T00:58:18;102615.34;;;4.13
66113;BMP280;52893;52.870;5.822;2023-03-03T01:00:48;102613.56;;;4.07
66113;BMP280;52893;52.870;5.822;2023-03-03T01:03:19;102616.84;;;4.09
66113;BMP280;52893;52.870;5.822;2023-03-03T01:05:48;102613.22;;;4.04
66113;BMP280;52893;52.870;5.822;2023-03-03T01:08:16;102610.59;;;3.97
66113;BMP280;52893;52.870;5.822;2023-03-03T01:10:47;102617.63;;;3.98
66113;BMP280;52893;52.870;5.822;2023-03-03T01:13:16;102621.16;;;3.99
66113;BMP280;52893;52.870;5.822;2023-03-03T01:15:44;102620.94;;;4.00
66113;BMP280;52893;52.870;5.822;2023-03-03T01:18:12;102619.44;;;4.04
66113;BMP280;52893;52.870;5.822;2023-03-03T01:20:40;102621.88;;;4.06
66113;BMP280;52893;52.870;5.822;2023-03-03T01:23:09;102611.91;;;4.06
66113;BMP280;52893;52.870;5.822;2023-03-03T01:25:36;102602.75;;;4.07
66113;BMP280;52893;52.870;5.822;2023-03-03T01:28:04;102602.63;;;4.02
66113;BMP280;52893;52.870;5.822;2023-03-03T01:30:32;102603.22;;;4.04
66113;BMP280;52893;52.870;5.822;2023-03-03T01:32:59;102607.44;;;4.00
66113;BMP280;52893;52.870;5.822;2023-03-03T01:35:26;102612.84;;;4.00
66113;BMP280;52893;52.870;5.822;2023-03-03T01:37:55;102608.63;;;4.04
66113;BMP280;52893;52.870;5.822;2023-03-03T01:40:26;102604.63;;;4.07
66113;BMP280;52893;52.870;5.822;2023-03-03T01:42:54;102608.97;;;4.08
66113;BMP280;52893;52.870;5.822;2023-03-03T01:45:23;102610.16;;;4.12
66113;BMP280;52893;52.870;5.822;2023-03-03T01:47:55;102586.41;;;4.02
66113;BMP280;52893;52.870;5.822;2023-03-03T01:50:32;102597.34;;;4.07
66113;BMP280;52893;52.870;5.822;2023-03-03T01:53:03;102602.75;;;4.07
66113;BMP280;52893;52.870;5.822;2023-03-03T01:55:34;102592.25;;;3.99
66113;BMP280;52893;52.870;5.822;2023-03-03T01:58:05;102598.28;;;4.01
66113;BMP280;52893;52.870;5.822;2023-03-03T02:00:35;102579.72;;;3.93
66113;BMP280;52893;52.870;5.822;2023-03-03T02:03:04;102586.63;;;4.01
66113;BMP280;52893;52.870;5.822;2023-03-03T02:05:32;102594.16;;;3.99
66113;BMP280;52893;52.870;5.822;2023-03-03T02:08:00;102591.34;;;3.94
66113;BMP280;52893;52.870;5.822;2023-03-03T02:10:28;102585.56;;;3.90
66113;BMP280;52893;52.870;5.822;2023-03-03T02:12:57;102593.09;;;3.88
66113;BMP280;52893;52.870;5.822;2023-03-03T02:15:27;102592.50;;;3.86
66113;BMP280;52893;52.870;5.822;2023-03-03T02:17:58;102589.88;;;3.79
66113;BMP280;52893;52.870;5.822;2023-03-03T02:20:40;102592.69;;;3.73
66113;BMP280;52893;52.870;5.822;2023-03-03T02:23:17;102588.47;;;3.65
66113;BMP280;52893;52.870;5.822;2023-03-03T02:25:59;102584.06;;;3.53
66113;BMP280;52893;52.870;5.822;2023-03-03T02:28:32;102599.13;;;3.60
66113;BMP280;52893;52.870;5.822;2023-03-03T02:31:06;102591.84;;;3.61
66113;BMP280;52893;52.870;5.822;2023-03-03T02:33:36;102593.50;;;3.62
66113;BMP280;52893;52.870;5.822;2023-03-03T02:36:03;102589.09;;;3.49
66113;BMP280;52893;52.870;5.822;2023-03-03T02:38:35;102572.00;;;3.25
66113;BMP280;52893;52.870;5.822;2023-03-03T02:41:08;102595.53;;;3.36
66113;BMP280;52893;52.870;5.822;2023-03-03T02:43:43;102602.44;;;3.32
66113;BMP280;52893;52.870;5.822;2023-03-03T02:46:12;102594.81;;;3.29
66113;BMP280;52893;52.870;5.822;2023-03-03T02:48:40;102591.84;;;3.31
66113;BMP280;52893;52.870;5.822;2023-03-03T02:51:07;102594.56;;;3.31
66113;BMP280;52893;52.870;5.822;2023-03-03T02:53:34;102589.41;;;3.29
66113;BMP280;52893;52.870;5.822;2023-03-03T02:56:02;102592.09;;;3.29
66113;BMP280;52893;52.870;5.822;2023-03-03T02:58:31;102594.41;;;3.26
66113;BMP280;52893;52.870;5.822;2023-03-03T03:00:58;102596.50;;;3.24
66113;BMP280;52893;52.870;5.822;2023-03-03T03:03:26;102590.28;;;3.23
66113;BMP280;52893;52.870;5.822;2023-03-03T03:05:54;102593.50;;;3.20
66113;BMP280;52893;52.870;5.822;2023-03-03T03:08:24;102592.28;;;3.16
66113;BMP280;52893;52.870;5.822;2023-03-03T03:10:51;102593.31;;;3.15
66113;BMP280;52893;52.870;5.822;2023-03-03T03:13:19;102588.63;;;3.11
66113;BMP280;52893;52.870;5.822;2023-03-03T03:15:49;102590.72;;;3.08
66113;BMP280;52893;52.870;5.822;2023-03-03T03:18:16;102596.56;;;3.05
66113;BMP280;52893;52.870;5.822;2023-03-03T03:20:44;102598.88;;;3.02
66113;BMP280;52893;52.870;5.822;2023-03-03T03:23:13;102597.69;;;2.98
66113;BMP280;52893;52.870;5.822;2023-03-03T03:25:41;102587.94;;;2.97
66113;BMP280;52893;52.870;5.822;2023-03-03T03:28:16;102595.59;;;3.00
66113;BMP280;52893;52.870;5.822;2023-03-03T03:30:43;102591.25;;;2.99
66113;BMP280;52893;52.870;5.822;2023-03-03T03:33:13;102595.19;;;2.96
66113;BMP280;52893;52.870;5.822;2023-03-03T03:35:40;102598.13;;;2.95
66113;BMP280;52893;52.870;5.822;2023-03-03T03:38:12;102593.75;;;2.94
66113;BMP280;52893;52.870;5.822;2023-03-03T03:40:41;102591.91;;;2.94
66113;BMP280;52893;52.870;5.822;2023-03-03T03:43:08;102592.97;;;2.93
66113;BMP280;52893;52.870;5.822;2023-03-03T03:45:36;102599.44;;;2.92
66113;BMP280;52893;52.870;5.822;2023-03-03T03:48:04;102598.63;;;2.92
66113;BMP280;52893;52.870;5.822;2023-03-03T03:50:33;102591.78;;;2.89
66113;BMP280;52893;52.870;5.822;2023-03-03T03:53:01;102596.13;;;2.90
66113;BMP280;52893;52.870;5.822;2023-03-03T03:55:30;102582.88;;;2.89
66113;BMP280;52893;52.870;5.822;2023-03-03T03:57:58;102571.69;;;2.85
66113;BMP280;52893;52.870;5.822;2023-03-03T04:00:26;102585.56;;;2.89
66113;BMP280;52893;52.870;5.822;2023-03-03T04:02:57;102594.50;;;2.89
66113;BMP280;52893;52.870;5.822;2023-03-03T04:05:25;102595.31;;;2.90
66113;BMP280;52893;52.870;5.822;2023-03-03T04:07:55;102582.69;;;2.84
66113;BMP280;52893;52.870;5.822;2023-03-03T04:10:22;102588.09;;;2.84
66113;BMP280;52893;52.870;5.822;2023-03-03T04:12:49;102586.91;;;2.80
66113;BMP280;52893;52.870;5.822;2023-03-03T04:15:17;102580.09;;;2.77
66113;BMP280;52893;52.870;5.822;2023-03-03T04:17:44;102577.69;;;2.69
66113;BMP280;52893;52.870;5.822;2023-03-03T04:20:13;102583.69;;;2.71
66113;BMP280;52893;52.870;5.822;2023-03-03T04:22:42;102583.91;;;2.69
66113;BMP280;52893;52.870;5.822;2023-03-03T04:25:14;102576.72;;;2.63
66113;BMP280;52893;52.870;5.822;2023-03-03T04:27:44;102575.81;;;2.51
66113;BMP280;52893;52.870;5.822;2023-03-03T04:30:14;102576.25;;;2.48
66113;BMP280;52893;52.870;5.822;2023-03-03T04:32:43;102579.44;;;2.39
66113;BMP280;52893;52.870;5.822;2023-03-03T04:35:12;102583.47;;;2.29
66113;BMP280;52893;52.870;5.822;2023-03-03T04:37:42;102574.53;;;2.11
66113;BMP280;52893;52.870;5.822;2023-03-03T04:40:12;102585.19;;;1.99
66113;BMP280;52893;52.870;5.822;2023-03-03T04:42:41;102580.72;;;1.86
66113;BMP280;52893;52.870;5.822;2023-03-03T04:45:10;102580.19;;;1.78
66113;BMP280;52893;52.870;5.822;2023-03-03T04:47:37;102576.06;;;1.75
66113;BMP280;52893;52.870;5.822;2023-03-03T04:50:06;102582.31;;;1.69
66113;BMP280;52893;52.870;5.822;2023-03-03T04:52:34;102579.44;;;1.64
66113;BMP280;52893;52.870;5.822;2023-03-03T04:55:02;102581.97;;;1.59
66113;BMP280;52893;52.870;5.822;2023-03-03T04:57:32;102581.75;;;1.54
66113;BMP280;52893;52.870;5.822;2023-03-03T04:59:59;102583.00;;;1.51
66113;BMP280;52893;52.870;5.822;2023-03-03T05:02:27;102582.63;;;1.48
66113;BMP280;52893;52.870;5.822;2023-03-03T05:04:55;102599.19;;;1.45
66113;BMP280;52893;52.870;5.822;2023-03-03T05:07:22;102595.31;;;1.41
66113;BMP280;52893;52.870;5.822;2023-03-03T05:09:49;102595.72;;;1.38
66113;BMP280;52893;52.870;5.822;2023-03-03T05:12:17;102593.25;;;1.36
66113;BMP280;52893;52.870;5.822;2023-03-03T05:14:46;102597.78;;;1.36
66113;BMP280;52893;52.870;5.822;2023-03-03T05:17:13;102589.94;;;1.34
66113;BMP280;52893;52.870;5.822;2023-03-03T05:19:41;102593.31;;;1.30
66113;BMP280;52893;52.870;5.822;2023-03-03T05:22:08;102594.13;;;1.24
66113;BMP280;52893;52.870;5.822;2023-03-03T05:24:35;102599.97;;;1.21
66113;BMP280;52893;52.870;5.822;2023-03-03T05:27:03;102601.41;;;1.17
66113;BMP280;52893;52.870;5.822;2023-03-03T05:29:30;102578.50;;;1.01
66113;BMP280;52893;52.870;5.822;2023-03-03T05:31:59;102597.53;;;1.12
66113;BMP280;52893;52.870;5.822;2023-03-03T05:34:26;102596.28;;;1.08
66113;BMP280;52893;52.870;5.822;2023-03-03T05:36:54;102602.06;;;1.05
66113;BMP280;52893;52.870;5.822;2023-03-03T05:39:21;102590.72;;;0.97
66113;BMP280;52893;52.870;5.822;2023-03-03T05:41:49;102599.19;;;1.00
66113;BMP280;52893;52.870;5.822;2023-03-03T05:44:16;102592.16;;;0.99
66113;BMP280;52893;52.870;5.822;2023-03-03T05:46:43;102589.28;;;1.01
66113;BMP280;52893;52.870;5.822;2023-03-03T05:49:12;102590.94;;;1.02
66113;BMP280;52893;52.870;5.822;2023-03-03T05:51:39;102591.75;;;1.02
66113;BMP280;52893;52.870;5.822;2023-03-03T05:54:06;102596.69;;;1.05
66113;BMP280;52893;52.870;5.822;2023-03-03T05:56:34;102601.66;;;1.08
66113;BMP280;52893;52.870;5.822;2023-03-03T05:59:01;102599.38;;;1.12
66113;BMP280;52893;52.870;5.822;2023-03-03T06:01:28;102596.91;;;1.10
66113;BMP280;52893;52.870;5.822;2023-03-03T06:03:55;102594.63;;;1.07
66113;BMP280;52893;52.870;5.822;2023-03-03T06:06:24;102598.34;;;1.06
66113;BMP280;52893;52.870;5.822;2023-03-03T06:08:53;102591.13;;;1.00
66113;BMP280;52893;52.870;5.822;2023-03-03T06:11:20;102599.19;;;1.00
66113;BMP280;52893;52.870;5.822;2023-03-03T06:13:47;102606.66;;;0.98
66113;BMP280;52893;52.870;5.822;2023-03-03T06:16:14;102603.78;;;0.93
66113;BMP280;52893;52.870;5.822;2023-03-03T06:18:42;102590.16;;;0.82
66113;BMP280;52893;52.870;5.822;2023-03-03T06:21:09;102602.94;;;0.93
66113;BMP280;52893;52.870;5.822;2023-03-03T06:23:37;102613.25;;;0.96
66113;BMP280;52893;52.870;5.822;2023-03-03T06:26:05;102603.53;;;1.01
66113;BMP280;52893;52.870;5.822;2023-03-03T06:28:32;102610.59;;;1.02
66113;BMP280;52893;52.870;5.822;2023-03-03T06:30:59;102607.88;;;1.09
66113;BMP280;52893;52.870;5.822;2023-03-03T06:33:27;102594.22;;;1.04
66113;BMP280;52893;52.870;5.822;2023-03-03T06:35:54;102613.66;;;1.12
66113;BMP280;52893;52.870;5.822;2023-03-03T06:38:21;102613.41;;;1.14
66113;BMP280;52893;52.870;5.822;2023-03-03T06:40:50;102599.97;;;1.14
66113;BMP280;52893;52.870;5.822;2023-03-03T06:43:17;102611.13;;;1.24
66113;BMP280;52893;52.870;5.822;2023-03-03T06:45:45;102583.44;;;1.10
66113;BMP280;52893;52.870;5.822;2023-03-03T06:48:12;102613.38;;;1.27
66113;BMP280;52893;52.870;5.822;2023-03-03T06:50:39;102614.41;;;1.26
66113;BMP280;52893;52.870;5.822;2023-03-03T06:53:10;102615.91;;;1.22
66113;BMP280;52893;52.870;5.822;2023-03-03T06:55:38;102613.84;;;1.18
66113;BMP280;52893;52.870;5.822;2023-03-03T06:58:11;102611.34;;;1.16
66113;BMP280;52893;52.870;5.822;2023-03-03T07:00:41;102621.06;;;1.17
66113;BMP280;52893;52.870;5.822;2023-03-03T07:03:14;102621.50;;;1.21
66113;BMP280;52893;52.870;5.822;2023-03-03T07:05:43;102616.53;;;1.18
66113;BMP280;52893;52.870;5.822;2023-03-03T07:08:13;102619.84;;;1.20
66113;BMP280;52893;52.870;5.822;2023-03-03T07:10:42;102622.94;;;1.17
66113;BMP280;52893;52.870;5.822;2023-03-03T07:13:18;102630.00;;;1.11
66113;BMP280;52893;52.870;5.822;2023-03-03T07:15:46;102618.44;;;0.97
66113;BMP280;52893;52.870;5.822;2023-03-03T07:18:25;102625.47;;;0.98
66113;BMP280;52893;52.870;5.822;2023-03-03T07:20:58;102644.28;;;1.05
66113;BMP280;52893;52.870;5.822;2023-03-03T07:23:27;102641.16;;;1.08
66113;BMP280;52893;52.870;5.822;2023-03-03T07:25:58;102656.06;;;1.10
66113;BMP280;52893;52.870;5.822;2023-03-03T07:28:28;102648.00;;;1.10
66113;BMP280;52893;52.870;5.822;2023-03-03T07:30:56;102655.63;;;1.13
66113;BMP280;52893;52.870;5.822;2023-03-03T07:33:26;102578.81;;;0.73
66113;BMP280;52893;52.870;5.822;2023-03-03T07:35:55;102664.09;;;1.24
66113;BMP280;52893;52.870;5.822;2023-03-03T07:38:28;102664.91;;;1.31
66113;BMP280;52893;52.870;5.822;2023-03-03T07:40:58;102666.94;;;1.35
66113;BMP280;52893;52.870;5.822;2023-03-03T07:43:38;102662.72;;;1.52
66113;BMP280;52893;52.870;5.822;2023-03-03T07:46:20;102665.94;;;1.74
66113;BMP280;52893;52.870;5.822;2023-03-03T07:48:49;102680.72;;;1.97
66113;BMP280;52893;52.870;5.822;2023-03-03T07:51:20;102670.22;;;2.20
66113;BMP280;52893;52.870;5.822;2023-03-03T07:53:51;102672.09;;;2.44
66113;BMP280;52893;52.870;5.822;2023-03-03T07:56:26;102680.16;;;2.69
66113;BMP280;52893;52.870;5.822;2023-03-03T07:58:56;102680.69;;;2.96
66113;BMP280;52893;52.870;5.822;2023-03-03T08:01:40;102678.31;;;3.24
66113;BMP280;52893;52.870;5.822;2023-03-03T08:04:14;102685.41;;;3.55
66113;BMP280;52893;52.870;5.822;2023-03-03T08:06:47;102665.91;;;3.83
66113;BMP280;52893;52.870;5.822;2023-03-03T08:09:47;102675.53;;;4.32
66113;BMP280;52893;52.870;5.822;2023-03-03T08:12:34;102684.94;;;4.64
66113;BMP280;52893;52.870;5.822;2023-03-03T08:15:19;102670.19;;;4.95
66113;BMP280;52893;52.870;5.822;2023-03-03T08:17:48;102692.47;;;5.37
66113;BMP280;52893;52.870;5.822;2023-03-03T08:20:42;102680.94;;;5.75
66113;BMP280;52893;52.870;5.822;2023-03-03T08:23:10;102655.28;;;5.95
66113;BMP280;52893;52.870;5.822;2023-03-03T08:25:38;102696.28;;;6.48
66113;BMP280;52893;52.870;5.822;2023-03-03T08:28:07;102673.22;;;6.67
66113;BMP280;52893;52.870;5.822;2023-03-03T08:30:36;102679.94;;;7.03
66113;BMP280;52893;52.870;5.822;2023-03-03T08:33:03;102688.53;;;7.44
66113;BMP280;52893;52.870;5.822;2023-03-03T08:35:33;102665.38;;;7.63
66113;BMP280;52893;52.870;5.822;2023-03-03T08:38:00;102690.47;;;8.07
66113;BMP280;52893;52.870;5.822;2023-03-03T08:40:27;102689.53;;;8.28
66113;BMP280;52893;52.870;5.822;2023-03-03T08:42:55;102692.41;;;8.54
66113;BMP280;52893;52.870;5.822;2023-03-03T08:45:23;102681.63;;;8.74
66113;BMP280;52893;52.870;5.822;2023-03-03T08:47:52;102673.25;;;8.96
66113;BMP280;52893;52.870;5.822;2023-03-03T08:50:20;102688.06;;;9.35
66113;BMP280;52893;52.870;5.822;2023-03-03T08:52:47;102690.31;;;9.68
66113;BMP280;52893;52.870;5.822;2023-03-03T08:55:15;102666.84;;;9.88
66113;BMP280;52893;52.870;5.822;2023-03-03T08:57:42;102686.13;;;10.37
66113;BMP280;52893;52.870;5.822;2023-03-03T09:00:11;102684.66;;;10.69
66113;BMP280;52893;52.870;5.822;2023-03-03T09:02:41;102684.16;;;11.06
66113;BMP280;52893;52.870;5.822;2023-03-03T09:05:10;102694.31;;;11.45
66113;BMP280;52893;52.870;5.822;2023-03-03T09:07:37;102677.25;;;11.58
66113;BMP280;52893;52.870;5.822;2023-03-03T09:10:06;102670.19;;;11.81
66113;BMP280;52893;52.870;5.822;2023-03-03T09:12:36;102687.88;;;12.17
66113;BMP280;52893;52.870;5.822;2023-03-03T09:15:22;102685.09;;;12.46
66113;BMP280;52893;52.870;5.822;2023-03-03T09:17:50;102683.84;;;12.81
66113;BMP280;52893;52.870;5.822;2023-03-03T09:20:27;102684.94;;;12.98
66113;BMP280;52893;52.870;5.822;2023-03-03T09:22:57;102686.53;;;13.37
66113;BMP280;52893;52.870;5.822;2023-03-03T09:25:30;102679.16;;;13.51
66113;BMP280;52893;52.870;5.822;2023-03-03T09:27:59;102690.41;;;13.68
66113;BMP280;52893;52.870;5.822;2023-03-03T09:30:36;102694.03;;;13.64
66113;BMP280;52893;52.870;5.822;2023-03-03T09:33:40;102687.88;;;13.85
66113;BMP280;52893;52.870;5.822;2023-03-03T09:36:19;102675.19;;;14.17
66113;BMP280;52893;52.870;5.822;2023-03-03T09:38:49;102676.28;;;14.43
66113;BMP280;52893;52.870;5.822;2023-03-03T09:41:46;102693.59;;;14.57
66113;BMP280;52893;52.870;5.822;2023-03-03T09:44:35;102694.31;;;14.49
66113;BMP280;52893;52.870;5.822;2023-03-03T09:47:21;102692.16;;;14.46
66113;BMP280;52893;52.870;5.822;2023-03-03T09:49:56;102700.84;;;14.39
66113;BMP280;52893;52.870;5.822;2023-03-03T09:52:36;102700.41;;;14.46
66113;BMP280;52893;52.870;5.822;2023-03-03T09:55:38;102691.41;;;14.54
66113;BMP280;52893;52.870;5.822;2023-03-03T09:58:25;102702.13;;;14.69
66113;BMP280;52893;52.870;5.822;2023-03-03T10:01:00;102708.31;;;14.75
66113;BMP280;52893;52.870;5.822;2023-03-03T10:03:56;102700.66;;;14.85
66113;BMP280;52893;52.870;5.822;2023-03-03T10:06:27;102705.75;;;15.00
66113;BMP280;52893;52.870;5.822;2023-03-03T10:09:05;102711.03;;;14.88
66113;BMP280;52893;52.870;5.822;2023-03-03T10:11:40;102703.81;;;15.15
66113;BMP280;52893;52.870;5.822;2023-03-03T10:14:30;102701.19;;;15.63
66113;BMP280;52893;52.870;5.822;2023-03-03T10:17:13;102702.50;;;15.65
66113;BMP280;52893;52.870;5.822;2023-03-03T10:19:51;102703.16;;;16.01
66113;BMP280;52893;52.870;5.822;2023-03-03T10:22:33;102699.22;;;16.59
66113;BMP280;52893;52.870;5.822;2023-03-03T10:25:20;102699.72;;;16.95
66113;BMP280;52893;52.870;5.822;2023-03-03T10:28:01;102695.03;;;17.22
66113;BMP280;52893;52.870;5.822;2023-03-03T10:30:39;102692.66;;;17.58
66113;BMP280;52893;52.870;5.822;2023-03-03T10:33:17;102697.78;;;16.70
66113;BMP280;52893;52.870;5.822;2023-03-03T10:36:15;102705.13;;;15.39
66113;BMP280;52893;52.870;5.822;2023-03-03T10:38:53;102709.69;;;14.50
66113;BMP280;52893;52.870;5.822;2023-03-03T10:41:37;102714.63;;;13.80
66113;BMP280;52893;52.870;5.822;2023-03-03T10:44:29;102707.63;;;13.23
66113;BMP280;52893;52.870;5.822;2023-03-03T10:47:20;102710.03;;;13.24
66113;BMP280;52893;52.870;5.822;2023-03-03T10:49:59;102714.31;;;13.81
66113;BMP280;52893;52.870;5.822;2023-03-03T10:52:34;102714.38;;;14.22
66113;BMP280;52893;52.870;5.822;2023-03-03T10:55:23;102710.47;;;14.64
66113;BMP280;52893;52.870;5.822;2023-03-03T10:58:04;102697.38;;;14.83
66113;BMP280;52893;52.870;5.822;2023-03-03T11:00:39;102711.25;;;14.78
66113;BMP280;52893;52.870;5.822;2023-03-03T11:03:32;102708.38;;;14.83
66113;BMP280;52893;52.870;5.822;2023-03-03T11:06:05;102707.88;;;15.39
66113;BMP280;52893;52.870;5.822;2023-03-03T11:08:40;102711.53;;;15.88
66113;BMP280;52893;52.870;5.822;2023-03-03T11:11:17;102714.16;;;16.41
66113;BMP280;52893;52.870;5.822;2023-03-03T11:13:54;102706.19;;;16.39
66113;BMP280;52893;52.870;5.822;2023-03-03T11:16:36;102717.53;;;16.38
66113;BMP280;52893;52.870;5.822;2023-03-03T11:19:25;102714.16;;;16.41
66113;BMP280;52893;52.870;5.822;2023-03-03T11:22:01;102695.19;;;16.74
66113;BMP280;52893;52.870;5.822;2023-03-03T11:24:46;102709.97;;;16.78
66113;BMP280;52893;52.870;5.822;2023-03-03T11:30:30;102705.75;;;16.72
66113;BMP280;52893;52.870;5.822;2023-03-03T11:33:03;102706.03;;;17.04
66113;BMP280;52893;52.870;5.822;2023-03-03T11:35:40;102708.03;;;17.04
66113;BMP280;52893;52.870;5.822;2023-03-03T11:38:22;102711.75;;;16.91
66113;BMP280;52893;52.870;5.822;2023-03-03T11:40:54;102704.06;;;16.28
66113;BMP280;52893;52.870;5.822;2023-03-03T11:43:26;102712.50;;;15.83
66113;BMP280;52893;52.870;5.822;2023-03-03T11:45:59;102717.91;;;14.99
66113;BMP280;52893;52.870;5.822;2023-03-03T11:48:34;102716.69;;;14.15
66113;BMP280;52893;52.870;5.822;2023-03-03T11:51:05;102717.75;;;13.41
66113;BMP280;52893;52.870;5.822;2023-03-03T11:53:49;102707.41;;;12.58
66113;BMP280;52893;52.870;5.822;2023-03-03T11:56:22;102714.34;;;12.27
66113;BMP280;52893;52.870;5.822;2023-03-03T11:58:59;102707.06;;;11.88
66113;BMP280;52893;52.870;5.822;2023-03-03T12:01:32;102710.00;;;11.68
66113;BMP280;52893;52.870;5.822;2023-03-03T12:04:03;102717.75;;;11.56
66113;BMP280;52893;52.870;5.822;2023-03-03T12:06:43;102712.94;;;11.43
66113;BMP280;52893;52.870;5.822;2023-03-03T12:09:27;102684.72;;;11.08
66113;BMP280;52893;52.870;5.822;2023-03-03T12:12:00;102711.47;;;11.16
66113;BMP280;52893;52.870;5.822;2023-03-03T12:14:56;102703.31;;;11.11
66113;BMP280;52893;52.870;5.822;2023-03-03T12:17:37;102700.56;;;11.06
66113;BMP280;52893;52.870;5.822;2023-03-03T12:20:14;102695.69;;;11.03
66113;BMP280;52893;52.870;5.822;2023-03-03T12:22:49;102696.28;;;10.95
66113;BMP280;52893;52.870;5.822;2023-03-03T12:25:34;102697.91;;;10.96
66113;BMP280;52893;52.870;5.822;2023-03-03T12:28:08;102695.66;;;11.08
66113;BMP280;52893;52.870;5.822;2023-03-03T12:30:59;102687.41;;;11.13
66113;BMP280;52893;52.870;5.822;2023-03-03T12:33:36;102679.50;;;11.12
66113;BMP280;52893;52.870;5.822;2023-03-03T12:36:15;102682.97;;;11.28
66113;BMP280;52893;52.870;5.822;2023-03-03T12:38:47;102674.88;;;11.46
66113;BMP280;52893;52.870;5.822;2023-03-03T12:41:22;102675.44;;;11.48
66113;BMP280;52893;52.870;5.822;2023-03-03T12:44:01;102670.16;;;11.52
66113;BMP280;52893;52.870;5.822;2023-03-03T12:46:37;102666.13;;;11.49
66113;BMP280;52893;52.870;5.822;2023-03-03T12:49:08;102672.09;;;11.56
66113;BMP280;52893;52.870;5.822;2023-03-03T12:51:47;102663.25;;;11.59
66113;BMP280;52893;52.870;5.822;2023-03-03T12:54:38;102663.06;;;11.56
66113;BMP280;52893;52.870;5.822;2023-03-03T12:57:17;102661.66;;;11.58
66113;BMP280;52893;52.870;5.822;2023-03-03T12:59:54;102664.69;;;11.57
66113;BMP280;52893;52.870;5.822;2023-03-03T13:02:46;102659.50;;;11.55
66113;BMP280;52893;52.870;5.822;2023-03-03T13:05:26;102663.88;;;11.56
66113;BMP280;52893;52.870;5.822;2023-03-03T13:08:02;102659.22;;;11.57
66113;BMP280;52893;52.870;5.822;2023-03-03T13:10:38;102661.97;;;11.52
66113;BMP280;52893;52.870;5.822;2023-03-03T13:13:16;102656.28;;;11.48
66113;BMP280;52893;52.870;5.822;2023-03-03T13:15:49;102654.94;;;11.41
66113;BMP280;52893;52.870;5.822;2023-03-03T13:18:28;102654.53;;;11.24
66113;BMP280;52893;52.870;5.822;2023-03-03T13:21:04;102666.41;;;11.09
66113;BMP280;52893;52.870;5.822;2023-03-03T13:23:47;102639.72;;;10.91
66113;BMP280;52893;52.870;5.822;2023-03-03T13:26:19;102654.16;;;11.01
66113;BMP280;52893;52.870;5.822;2023-03-03T13:28:57;102653.84;;;11.03
66113;BMP280;52893;52.870;5.822;2023-03-03T13:31:29;102648.91;;;11.10
66113;BMP280;52893;52.870;5.822;2023-03-03T13:33:58;102645.91;;;11.11
66113;BMP280;52893;52.870;5.822;2023-03-03T13:36:31;102648.63;;;11.06
66113;BMP280;52893;52.870;5.822;2023-03-03T13:39:04;102640.97;;;11.08
66113;BMP280;52893;52.870;5.822;2023-03-03T13:41:42;102652.47;;;11.10
66113;BMP280;52893;52.870;5.822;2023-03-03T13:44:17;102638.28;;;11.03
66113;BMP280;52893;52.870;5.822;2023-03-03T13:46:54;102650.31;;;10.97
66113;BMP280;52893;52.870;5.822;2023-03-03T13:49:35;102650.41;;;10.87
66113;BMP280;52893;52.870;5.822;2023-03-03T13:52:09;102643.31;;;10.86
66113;BMP280;52893;52.870;5.822;2023-03-03T13:54:54;102642.22;;;10.87
66113;BMP280;52893;52.870;5.822;2023-03-03T13:57:40;102605.69;;;10.73
66113;BMP280;52893;52.870;5.822;2023-03-03T14:00:25;102631.25;;;10.92
66113;BMP280;52893;52.870;5.822;2023-03-03T14:03:05;102638.28;;;11.03
66113;BMP280;52893;52.870;5.822;2023-03-03T14:05:37;102631.69;;;11.09
66113;BMP280;52893;52.870;5.822;2023-03-03T14:08:13;102633.03;;;11.12
66113;BMP280;52893;52.870;5.822;2023-03-03T14:10:46;102627.59;;;11.07
66113;BMP280;52893;52.870;5.822;2023-03-03T14:13:19;102633.41;;;10.95
66113;BMP280;52893;52.870;5.822;2023-03-03T14:15:54;102627.47;;;10.83
66113;BMP280;52893;52.870;5.822;2023-03-03T14:18:28;102606.78;;;10.67
66113;BMP280;52893;52.870;5.822;2023-03-03T14:21:00;102611.72;;;10.70
66113;BMP280;52893;52.870;5.822;2023-03-03T14:23:44;102609.50;;;10.67
66113;BMP280;52893;52.870;5.822;2023-03-03T14:26:14;102600.28;;;10.63
66113;BMP280;52893;52.870;5.822;2023-03-03T14:28:42;102594.28;;;10.56
66113;BMP280;52893;52.870;5.822;2023-03-03T14:31:20;102601.94;;;10.64
66113;BMP280;52893;52.870;5.822;2023-03-03T14:34:12;102604.34;;;10.65
66113;BMP280;52893;52.870;5.822;2023-03-03T14:36:41;102600.28;;;10.63
66113;BMP280;52893;52.870;5.822;2023-03-03T14:39:27;102607.06;;;10.70